sensor_id;sensor_type;location;lat;lon;timestamp;pressure;altitude;pressure_sealevel;temperature;humidity
56330;BME280;42236;48.058;10.632;2023-03-18T00:00:36;94310.78;;;5.24;77.14
56330;BME280;42236;48.058;10.632;2023-03-18T00:03:23;94311.88;;;5.23;77.41
56330;BME280;42236;48.058;10.632;2023-03-18T00:06:12;94314.84;;;5.22;77.72
56330;BME280;42236;48.058;10.632;2023-03-18T00:08:58;94317.50;;;5.22;77.56
56330;BME280;42236;48.058;10.632;2023-03-18T00:11:43;94319.09;;;5.23;78.38
56330;BME280;42236;48.058;10.632;2023-03-18T00:14:30;94312.16;;;5.22;78.11
56330;BME280;42236;48.058;10.632;2023-03-18T00:17:16;94312.16;;;5.22;77.73
56330;BME280;42236;48.058;10.632;2023-03-18T00:20:04;94324.44;;;5.23;78.09
56330;BME280;42236;48.058;10.632;2023-03-18T00:22:51;94328.22;;;5.22;78.22
56330;BME280;42236;48.058;10.632;2023-03-18T00:25:37;94327.44;;;5.21;77.49
56330;BME280;42236;48.058;10.632;2023-03-18T00:28:23;94333.09;;;5.20;77.51
56330;BME280;42236;48.058;10.632;2023-03-18T00:31:10;94332.63;;;5.18;77.78
56330;BME280;42236;48.058;10.632;2023-03-18T00:33:57;94327.88;;;5.14;78.14
56330;BME280;42236;48.058;10.632;2023-03-18T00:36:43;94331.69;;;5.13;77.83
56330;BME280;42236;48.058;10.632;2023-03-18T00:39:30;94327.88;;;5.14;77.87
56330;BME280;42236;48.058;10.632;2023-03-18T00:42:17;94333.22;;;5.14;77.89
56330;BME280;42236;48.058;10.632;2023-03-18T00:45:08;94337.34;;;5.21;77.22
56330;BME280;42236;48.058;10.632;2023-03-18T00:47:55;94336.09;;;5.27;76.92
56330;BME280;42236;48.058;10.632;2023-03-18T00:50:41;94341.63;;;5.39;76.49
56330;BME280;42236;48.058;10.632;2023-03-18T00:53:27;94337.97;;;5.52;75.92
56330;BME280;42236;48.058;10.632;2023-03-18T00:56:14;94344.91;;;5.62;75.44
56330;BME280;42236;48.058;10.632;2023-03-18T00:59:00;94335.13;;;5.75;74.53
56330;BME280;42236;48.058;10.632;2023-03-18T01:01:45;94337.31;;;5.90;73.90
56330;BME280;42236;48.058;10.632;2023-03-18T01:04:31;94340.16;;;6.03;73.60
56330;BME280;42236;48.058;10.632;2023-03-18T01:07:18;94337.78;;;6.10;72.88
56330;BME280;42236;48.058;10.632;2023-03-18T01:10:04;94339.34;;;6.19;72.22
56330;BME280;42236;48.058;10.632;2023-03-18T01:12:50;94341.34;;;6.31;71.95
56330;BME280;42236;48.058;10.632;2023-03-18T01:15:36;94339.75;;;6.39;71.69
56330;BME280;42236;48.058;10.632;2023-03-18T01:18:22;94339.38;;;6.49;71.15
56330;BME280;42236;48.058;10.632;2023-03-18T01:21:09;94344.53;;;6.63;70.59
56330;BME280;42236;48.058;10.632;2023-03-18T01:23:55;94337.06;;;6.77;69.91
56330;BME280;42236;48.058;10.632;2023-03-18T01:26:40;94328.81;;;6.82;69.56
56330;BME280;42236;48.058;10.632;2023-03-18T01:29:26;94329.41;;;6.88;69.47
56330;BME280;42236;48.058;10.632;2023-03-18T01:32:12;94336.03;;;6.91;69.51
56330;BME280;42236;48.058;10.632;2023-03-18T01:34:57;94333.22;;;6.87;69.51
56330;BME280;42236;48.058;10.632;2023-03-18T01:37:44;94339.66;;;6.86;69.33
56330;BME280;42236;48.058;10.632;2023-03-18T01:40:36;94339.66;;;6.86;69.02
56330;BME280;42236;48.058;10.632;2023-03-18T01:43:28;94336.22;;;6.86;69.21
56330;BME280;42236;48.058;10.632;2023-03-18T01:49:29;94336.28;;;6.77;69.05
56330;BME280;42236;48.058;10.632;2023-03-18T01:52:26;94339.91;;;6.72;69.18
56330;BME280;42236;48.058;10.632;2023-03-18T01:55:23;94344.94;;;6.74;69.38
56330;BME280;42236;48.058;10.632;2023-03-18T01:58:17;94344.16;;;6.73;69.53
56330;BME280;42236;48.058;10.632;2023-03-18T02:01:08;94349.22;;;6.75;69.15
56330;BME280;42236;48.058;10.632;2023-03-18T02:03:57;94347.78;;;6.77;69.21
56330;BME280;42236;48.058;10.632;2023-03-18T02:06:44;94364.81;;;6.81;69.11
56330;BME280;42236;48.058;10.632;2023-03-18T02:09:30;94349.50;;;6.82;68.99
56330;BME280;42236;48.058;10.632;2023-03-18T02:12:21;94354.50;;;6.83;68.92
56330;BME280;42236;48.058;10.632;2023-03-18T02:15:13;94365.72;;;6.86;68.95
56330;BME280;42236;48.058;10.632;2023-03-18T02:18:16;94357.03;;;6.89;67.83
56330;BME280;42236;48.058;10.632;2023-03-18T02:24:34;94357.94;;;6.93;68.43
56330;BME280;42236;48.058;10.632;2023-03-18T02:27:25;94359.56;;;6.85;68.89
56330;BME280;42236;48.058;10.632;2023-03-18T02:30:16;94352.38;;;6.68;69.46
56330;BME280;42236;48.058;10.632;2023-03-18T02:33:03;94353.41;;;6.55;69.89
56330;BME280;42236;48.058;10.632;2023-03-18T02:35:56;94353.28;;;6.43;70.12
56330;BME280;42236;48.058;10.632;2023-03-18T02:38:44;94361.34;;;6.34;70.32
56330;BME280;42236;48.058;10.632;2023-03-18T02:41:33;94353.16;;;6.30;70.38
56330;BME280;42236;48.058;10.632;2023-03-18T02:44:19;94355.22;;;6.33;70.57
56330;BME280;42236;48.058;10.632;2023-03-18T02:47:09;94367.97;;;6.36;70.30
56330;BME280;42236;48.058;10.632;2023-03-18T02:49:56;94374.25;;;6.40;70.27
56330;BME280;42236;48.058;10.632;2023-03-18T02:52:41;94366.72;;;6.34;70.26
56330;BME280;42236;48.058;10.632;2023-03-18T02:55:27;94367.50;;;6.26;70.59
56330;BME280;42236;48.058;10.632;2023-03-18T02:58:13;94367.66;;;6.20;70.71
56330;BME280;42236;48.058;10.632;2023-03-18T03:00:59;94374.16;;;6.19;70.73
56330;BME280;42236;48.058;10.632;2023-03-18T03:03:45;94372.25;;;6.20;70.58
56330;BME280;42236;48.058;10.632;2023-03-18T03:06:32;94379.19;;;6.21;70.49
56330;BME280;42236;48.058;10.632;2023-03-18T03:09:18;94377.59;;;6.20;70.43
56330;BME280;42236;48.058;10.632;2023-03-18T03:12:04;94376.06;;;6.10;70.66
56330;BME280;42236;48.058;10.632;2023-03-18T03:14:50;94369.63;;;5.94;71.28
56330;BME280;42236;48.058;10.632;2023-03-18T03:17:36;94381.41;;;5.84;71.31
56330;BME280;42236;48.058;10.632;2023-03-18T03:20:22;94381.41;;;5.84;71.29
56330;BME280;42236;48.058;10.632;2023-03-18T03:23:11;94384.41;;;5.83;71.38
56330;BME280;42236;48.058;10.632;2023-03-18T03:25:58;94385.03;;;5.80;71.42
56330;BME280;42236;48.058;10.632;2023-03-18T03:28:44;94385.19;;;5.74;71.57
56330;BME280;42236;48.058;10.632;2023-03-18T03:31:30;94389.75;;;5.74;71.67
56330;BME280;42236;48.058;10.632;2023-03-18T03:34:16;94392.44;;;5.74;71.72
56330;BME280;42236;48.058;10.632;2023-03-18T03:37:02;94397.78;;;5.74;71.39
56330;BME280;42236;48.058;10.632;2023-03-18T03:39:48;94395.59;;;5.76;71.44
56330;BME280;42236;48.058;10.632;2023-03-18T03:42:34;94402.66;;;5.72;71.52
56330;BME280;42236;48.058;10.632;2023-03-18T03:45:20;94396.53;;;5.63;71.76
56330;BME280;42236;48.058;10.632;2023-03-18T03:48:05;94400.78;;;5.55;71.72
56330;BME280;42236;48.058;10.632;2023-03-18T03:50:51;94397.47;;;5.49;72.10
56330;BME280;42236;48.058;10.632;2023-03-18T03:53:37;94409.91;;;5.45;72.07
56330;BME280;42236;48.058;10.632;2023-03-18T03:56:22;94417.13;;;5.45;72.19
56330;BME280;42236;48.058;10.632;2023-03-18T03:59:08;94419.03;;;5.44;72.45
56330;BME280;42236;48.058;10.632;2023-03-18T04:01:54;94416.34;;;5.44;72.17
56330;BME280;42236;48.058;10.632;2023-03-18T04:04:40;94419.03;;;5.44;72.14
56330;BME280;42236;48.058;10.632;2023-03-18T04:07:26;94421.72;;;5.44;72.04
56330;BME280;42236;48.058;10.632;2023-03-18T04:10:16;94415.56;;;5.44;71.97
56330;BME280;42236;48.058;10.632;2023-03-18T04:13:04;94420.13;;;5.43;72.05
56330;BME280;42236;48.058;10.632;2023-03-18T04:15:49;94417.44;;;5.43;72.29
56330;BME280;42236;48.058;10.632;2023-03-18T04:18:36;94420.94;;;5.44;72.24
56330;BME280;42236;48.058;10.632;2023-03-18T04:21:22;94421.72;;;5.44;72.19
56330;BME280;42236;48.058;10.632;2023-03-18T04:24:07;94420.28;;;5.47;72.05
56330;BME280;42236;48.058;10.632;2023-03-18T04:26:55;94414.59;;;5.48;71.70
56330;BME280;42236;48.058;10.632;2023-03-18T04:29:41;94414.00;;;5.51;71.57
56330;BME280;42236;48.058;10.632;2023-03-18T04:32:26;94419.84;;;5.53;71.47
56330;BME280;42236;48.058;10.632;2023-03-18T04:35:12;94420.44;;;5.50;71.83
56330;BME280;42236;48.058;10.632;2023-03-18T04:37:58;94413.81;;;5.48;72.08
56330;BME280;42236;48.058;10.632;2023-03-18T04:40:44;94421.72;;;5.44;72.34
56330;BME280;42236;48.058;10.632;2023-03-18T04:43:30;94415.88;;;5.42;72.31
56330;BME280;42236;48.058;10.632;2023-03-18T04:46:15;94416.97;;;5.41;72.17
56330;BME280;42236;48.058;10.632;2023-03-18T04:49:01;94423.13;;;5.42;72.19
56330;BME280;42236;48.058;10.632;2023-03-18T04:51:47;94411.16;;;5.39;72.62
56330;BME280;42236;48.058;10.632;2023-03-18T04:54:32;94416.19;;;5.32;72.71
56330;BME280;42236;48.058;10.632;2023-03-18T04:57:18;94417.91;;;5.28;73.16
56330;BME280;42236;48.058;10.632;2023-03-18T05:00:05;94408.44;;;5.22;73.37
56330;BME280;42236;48.058;10.632;2023-03-18T05:02:52;94411.75;;;5.19;73.48
56330;BME280;42236;48.058;10.632;2023-03-18T05:05:38;94419.13;;;5.22;73.15
56330;BME280;42236;48.058;10.632;2023-03-18T05:08:23;94420.72;;;5.23;73.13
56330;BME280;42236;48.058;10.632;2023-03-18T05:11:09;94414.59;;;5.22;73.29
56330;BME280;42236;48.058;10.632;2023-03-18T05:13:55;94409.25;;;5.22;73.28
56330;BME280;42236;48.058;10.632;2023-03-18T05:16:41;94417.56;;;5.21;73.78
56330;BME280;42236;48.058;10.632;2023-03-18T05:19:27;94409.41;;;5.17;73.73
56330;BME280;42236;48.058;10.632;2023-03-18T05:22:14;94398.38;;;5.19;73.74
56330;BME280;42236;48.058;10.632;2023-03-18T05:25:00;94405.75;;;5.22;73.56
56330;BME280;42236;48.058;10.632;2023-03-18T05:27:47;94404.50;;;5.19;74.53
56330;BME280;42236;48.058;10.632;2023-03-18T05:30:33;94409.41;;;5.17;74.51
56330;BME280;42236;48.058;10.632;2023-03-18T05:33:21;94405.91;;;5.17;74.71
56330;BME280;42236;48.058;10.632;2023-03-18T05:36:07;94410.31;;;5.12;75.43
56330;BME280;42236;48.058;10.632;2023-03-18T05:38:54;94407.94;;;5.11;75.66
56330;BME280;42236;48.058;10.632;2023-03-18T05:41:40;94415.19;;;5.10;75.61
56330;BME280;42236;48.058;10.632;2023-03-18T05:44:26;94413.31;;;5.11;76.07
56330;BME280;42236;48.058;10.632;2023-03-18T05:47:12;94411.09;;;5.13;76.27
56330;BME280;42236;48.058;10.632;2023-03-18T05:49:58;94408.44;;;5.13;76.90
56330;BME280;42236;48.058;10.632;2023-03-18T05:52:44;94409.50;;;5.12;77.21
56330;BME280;42236;48.058;10.632;2023-03-18T05:55:30;94421.03;;;5.12;77.38
56330;BME280;42236;48.058;10.632;2023-03-18T05:58:16;94416.44;;;5.13;77.56
56330;BME280;42236;48.058;10.632;2023-03-18T06:01:02;94414.84;;;5.12;77.65
56330;BME280;42236;48.058;10.632;2023-03-18T06:03:48;94416.44;;;5.13;77.78
56330;BME280;42236;48.058;10.632;2023-03-18T06:06:35;94415.81;;;5.16;77.22
56330;BME280;42236;48.058;10.632;2023-03-18T06:09:24;94418.34;;;5.21;77.64
56330;BME280;42236;48.058;10.632;2023-03-18T06:12:10;94416.94;;;5.24;77.52
56330;BME280;42236;48.058;10.632;2023-03-18T06:14:56;94416.34;;;5.27;77.65
56330;BME280;42236;48.058;10.632;2023-03-18T06:17:42;94421.06;;;5.30;77.92
56330;BME280;42236;48.058;10.632;2023-03-18T06:20:28;94421.06;;;5.30;78.04
56330;BME280;42236;48.058;10.632;2023-03-18T06:23:13;94419.94;;;5.31;78.16
56330;BME280;42236;48.058;10.632;2023-03-18T06:26:00;94424.69;;;5.34;78.44
56330;BME280;42236;48.058;10.632;2023-03-18T06:28:46;94428.28;;;5.38;77.99
56330;BME280;42236;48.058;10.632;2023-03-18T06:31:33;94423.91;;;5.42;78.74
56330;BME280;42236;48.058;10.632;2023-03-18T06:34:18;94430.22;;;5.46;79.05
56330;BME280;42236;48.058;10.632;2023-03-18T06:37:04;94428.94;;;5.52;79.09
56330;BME280;42236;48.058;10.632;2023-03-18T06:39:50;94433.06;;;5.59;78.64
56330;BME280;42236;48.058;10.632;2023-03-18T06:42:36;94436.53;;;5.68;78.78
56330;BME280;42236;48.058;10.632;2023-03-18T06:45:22;94433.53;;;5.78;78.36
56330;BME280;42236;48.058;10.632;2023-03-18T06:48:08;94437.31;;;5.86;78.35
56330;BME280;42236;48.058;10.632;2023-03-18T06:50:55;94428.34;;;5.90;78.41
56330;BME280;42236;48.058;10.632;2023-03-18T06:53:40;94434.03;;;5.97;78.40
56330;BME280;42236;48.058;10.632;2023-03-18T06:56:26;94438.13;;;6.04;79.04
56330;BME280;42236;48.058;10.632;2023-03-18T06:59:12;94438.44;;;6.11;78.60
56330;BME280;42236;48.058;10.632;2023-03-18T07:01:58;94428.97;;;6.22;77.94
56330;BME280;42236;48.058;10.632;2023-03-18T07:04:44;94440.94;;;6.33;78.26
56330;BME280;42236;48.058;10.632;2023-03-18T07:07:30;94441.25;;;6.40;78.56
56330;BME280;42236;48.058;10.632;2023-03-18T07:10:22;94445.78;;;6.49;78.69
56330;BME280;42236;48.058;10.632;2023-03-18T07:13:09;94446.69;;;6.61;77.75
56330;BME280;42236;48.058;10.632;2023-03-18T07:15:55;94452.03;;;6.70;77.81
56330;BME280;42236;48.058;10.632;2023-03-18T07:18:41;94440.34;;;6.75;77.81
56330;BME280;42236;48.058;10.632;2023-03-18T07:21:27;94440.66;;;6.82;77.48
56330;BME280;42236;48.058;10.632;2023-03-18T07:24:13;94438.72;;;6.91;77.58
56330;BME280;42236;48.058;10.632;2023-03-18T07:26:59;94447.66;;;7.04;77.82
56330;BME280;42236;48.058;10.632;2023-03-18T07:29:45;94456.94;;;7.15;77.63
56330;BME280;42236;48.058;10.632;2023-03-18T07:32:31;94458.47;;;7.25;77.71
56330;BME280;42236;48.058;10.632;2023-03-18T07:35:17;94461.09;;;7.34;77.92
56330;BME280;42236;48.058;10.632;2023-03-18T07:38:02;94453.78;;;7.43;78.10
56330;BME280;42236;48.058;10.632;2023-03-18T07:40:48;94457.88;;;7.49;78.21
56330;BME280;42236;48.058;10.632;2023-03-18T07:43:34;94452.09;;;7.59;77.89
56330;BME280;42236;48.058;10.632;2023-03-18T07:46:20;94460.91;;;7.68;77.33
56330;BME280;42236;48.058;10.632;2023-03-18T07:49:06;94454.34;;;7.78;76.96
56330;BME280;42236;48.058;10.632;2023-03-18T07:51:51;94455.22;;;7.91;76.77
56330;BME280;42236;48.058;10.632;2023-03-18T07:54:37;94454.59;;;8.06;76.98
56330;BME280;42236;48.058;10.632;2023-03-18T07:57:23;94450.22;;;8.23;76.73
56330;BME280;42236;48.058;10.632;2023-03-18T08:00:10;94447.38;;;8.40;76.74
56330;BME280;42236;48.058;10.632;2023-03-18T08:02:56;94447.22;;;8.58;76.10
56330;BME280;42236;48.058;10.632;2023-03-18T08:05:42;94443.22;;;8.76;76.02
56330;BME280;42236;48.058;10.632;2023-03-18T08:08:28;94441.16;;;8.94;75.54
56330;BME280;42236;48.058;10.632;2023-03-18T08:11:14;94442.81;;;9.11;75.20
56330;BME280;42236;48.058;10.632;2023-03-18T08:14:00;94461.78;;;9.27;74.87
56330;BME280;42236;48.058;10.632;2023-03-18T08:16:46;94454.63;;;9.43;74.77
56330;BME280;42236;48.058;10.632;2023-03-18T08:19:32;94443.94;;;9.59;73.67
56330;BME280;42236;48.058;10.632;2023-03-18T08:22:17;94447.97;;;9.77;72.93
56330;BME280;42236;48.058;10.632;2023-03-18T08:25:03;94452.31;;;9.94;72.48
56330;BME280;42236;48.058;10.632;2023-03-18T08:27:50;94450.47;;;10.11;71.58
56330;BME280;42236;48.058;10.632;2023-03-18T08:30:38;94457.75;;;10.22;70.27
56330;BME280;42236;48.058;10.632;2023-03-18T08:33:25;94449.97;;;10.33;69.98
56330;BME280;42236;48.058;10.632;2023-03-18T08:36:11;94449.47;;;10.43;69.41
56330;BME280;42236;48.058;10.632;2023-03-18T08:38:57;94454.03;;;10.55;68.46
56330;BME280;42236;48.058;10.632;2023-03-18T08:41:43;94448.56;;;10.67;67.87
56330;BME280;42236;48.058;10.632;2023-03-18T08:44:28;94454.34;;;10.82;67.74
56330;BME280;42236;48.058;10.632;2023-03-18T08:47:15;94456.97;;;10.94;67.81
56330;BME280;42236;48.058;10.632;2023-03-18T08:50:01;94461.16;;;11.07;66.97
56330;BME280;42236;48.058;10.632;2023-03-18T08:52:47;94461.09;;;11.20;66.84
56330;BME280;42236;48.058;10.632;2023-03-18T08:55:34;94459.78;;;11.29;65.76
56330;BME280;42236;48.058;10.632;2023-03-18T08:58:21;94466.22;;;11.41;65.41
56330;BME280;42236;48.058;10.632;2023-03-18T09:01:07;94455.94;;;11.46;64.85
56330;BME280;42236;48.058;10.632;2023-03-18T09:03:53;94461.78;;;11.48;64.84
56330;BME280;42236;48.058;10.632;2023-03-18T09:06:41;94460.38;;;11.54;64.73
56330;BME280;42236;48.058;10.632;2023-03-18T09:09:27;94462.13;;;11.63;64.56
56330;BME280;42236;48.058;10.632;2023-03-18T09:12:13;94458.44;;;11.71;63.64
56330;BME280;42236;48.058;10.632;2023-03-18T09:14:59;94457.63;;;11.86;62.07
56330;BME280;42236;48.058;10.632;2023-03-18T09:17:45;94454.97;;;12.06;61.05
56330;BME280;42236;48.058;10.632;2023-03-18T09:20:33;94449.75;;;12.32;59.88
56330;BME280;42236;48.058;10.632;2023-03-18T09:23:19;94454.72;;;12.50;58.18
56330;BME280;42236;48.058;10.632;2023-03-18T09:26:06;94455.00;;;12.64;58.29
56330;BME280;42236;48.058;10.632;2023-03-18T09:28:51;94454.53;;;12.81;57.71
56330;BME280;42236;48.058;10.632;2023-03-18T09:31:38;94448.53;;;12.92;58.08
56330;BME280;42236;48.058;10.632;2023-03-18T09:34:23;94453.28;;;12.98;57.14
56330;BME280;42236;48.058;10.632;2023-03-18T09:37:10;94451.06;;;13.04;56.76
56330;BME280;42236;48.058;10.632;2023-03-18T09:39:58;94451.19;;;13.11;56.21
56330;BME280;42236;48.058;10.632;2023-03-18T09:42:51;94451.38;;;13.22;52.94
56330;BME280;42236;48.058;10.632;2023-03-18T09:45:52;94442.16;;;13.27;54.08
56330;BME280;42236;48.058;10.632;2023-03-18T09:57:53;94443.06;;;13.57;51.34
56330;BME280;42236;48.058;10.632;2023-03-18T10:00:41;94440.09;;;13.66;53.33
56330;BME280;42236;48.058;10.632;2023-03-18T10:03:30;94441.75;;;13.74;52.73
56330;BME280;42236;48.058;10.632;2023-03-18T10:06:19;94438.34;;;13.77;50.69
56330;BME280;42236;48.058;10.632;2023-03-18T10:09:18;94442.94;;;13.77;44.63
56330;BME280;42236;48.058;10.632;2023-03-18T10:12:15;94439.16;;;13.81;47.65
56330;BME280;42236;48.058;10.632;2023-03-18T10:15:30;94433.72;;;13.81;45.98
56330;BME280;42236;48.058;10.632;2023-03-18T10:22:13;94421.47;;;13.91;47.56
56330;BME280;42236;48.058;10.632;2023-03-18T10:25:13;94422.41;;;14.02;46.92
56330;BME280;42236;48.058;10.632;2023-03-18T10:35:19;94418.94;;;14.36;45.34
56330;BME280;42236;48.058;10.632;2023-03-18T10:38:24;94417.03;;;14.40;43.95
56330;BME280;42236;48.058;10.632;2023-03-18T10:41:38;94408.88;;;14.36;45.13
56330;BME280;42236;48.058;10.632;2023-03-18T10:44:32;94412.78;;;14.39;46.43
56330;BME280;42236;48.058;10.632;2023-03-18T10:47:31;94407.38;;;14.42;43.62
56330;BME280;42236;48.058;10.632;2023-03-18T10:50:32;94407.44;;;14.49;43.70
56330;BME280;42236;48.058;10.632;2023-03-18T10:53:45;94397.47;;;14.54;42.78
56330;BME280;42236;48.058;10.632;2023-03-18T10:56:36;94405.31;;;14.62;45.23
56330;BME280;42236;48.058;10.632;2023-03-18T10:59:23;94396.00;;;14.63;46.81
56330;BME280;42236;48.058;10.632;2023-03-18T11:02:16;94380.09;;;14.62;44.83
56330;BME280;42236;48.058;10.632;2023-03-18T11:05:21;94381.66;;;14.63;42.54
56330;BME280;42236;48.058;10.632;2023-03-18T11:08:27;94375.47;;;14.66;43.20
56330;BME280;42236;48.058;10.632;2023-03-18T11:11:33;94375.13;;;14.71;46.04
56330;BME280;42236;48.058;10.632;2023-03-18T11:14:29;94372.13;;;14.80;44.55
56330;BME280;42236;48.058;10.632;2023-03-18T11:17:26;94365.94;;;14.83;44.17
56330;BME280;42236;48.058;10.632;2023-03-18T11:20:22;94365.56;;;14.84;41.96
56330;BME280;42236;48.058;10.632;2023-03-18T11:23:27;94375.34;;;14.92;40.69
56330;BME280;42236;48.058;10.632;2023-03-18T11:26:30;94374.63;;;14.96;45.72
56330;BME280;42236;48.058;10.632;2023-03-18T11:29:20;94376.22;;;15.04;44.19
56330;BME280;42236;48.058;10.632;2023-03-18T11:35:18;94384.75;;;15.02;41.53
56330;BME280;42236;48.058;10.632;2023-03-18T11:38:05;94383.97;;;15.02;44.63
56330;BME280;42236;48.058;10.632;2023-03-18T11:40:51;94378.53;;;15.02;45.04
56330;BME280;42236;48.058;10.632;2023-03-18T11:43:37;94379.75;;;15.08;44.98
56330;BME280;42236;48.058;10.632;2023-03-18T11:46:26;94382.53;;;15.15;43.71
56330;BME280;42236;48.058;10.632;2023-03-18T11:49:22;94377.47;;;15.17;43.71
56330;BME280;42236;48.058;10.632;2023-03-18T11:52:22;94363.91;;;15.17;42.35
56330;BME280;42236;48.058;10.632;2023-03-18T11:55:42;94364.72;;;15.21;41.49
56330;BME280;42236;48.058;10.632;2023-03-18T12:02:05;94374.47;;;15.29;40.81
56330;BME280;42236;48.058;10.632;2023-03-18T12:08:59;94366.38;;;15.36;42.33
56330;BME280;42236;48.058;10.632;2023-03-18T12:15:45;94346.22;;;15.41;39.71
56330;BME280;42236;48.058;10.632;2023-03-18T12:21:35;94348.66;;;15.57;43.50
56330;BME280;42236;48.058;10.632;2023-03-18T12:31:05;94338.59;;;15.65;39.87
56330;BME280;42236;48.058;10.632;2023-03-18T12:34:02;94343.25;;;15.64;42.51
56330;BME280;42236;48.058;10.632;2023-03-18T12:46:22;94332.47;;;15.71;37.44
56330;BME280;42236;48.058;10.632;2023-03-18T12:49:23;94327.78;;;15.72;41.21
56330;BME280;42236;48.058;10.632;2023-03-18T12:52:41;94314.59;;;15.77;38.97
56330;BME280;42236;48.058;10.632;2023-03-18T12:55:35;94315.44;;;15.89;37.87
56330;BME280;42236;48.058;10.632;2023-03-18T13:02:13;94306.13;;;15.93;38.11
56330;BME280;42236;48.058;10.632;2023-03-18T13:05:42;94318.56;;;15.91;37.98
56330;BME280;42236;48.058;10.632;2023-03-18T13:11:52;94307.31;;;15.92;38.00
56330;BME280;42236;48.058;10.632;2023-03-18T13:14:59;94305.38;;;16.04;38.35
56330;BME280;42236;48.058;10.632;2023-03-18T13:17:47;94306.59;;;16.13;39.36
56330;BME280;42236;48.058;10.632;2023-03-18T13:20:36;94307.00;;;16.15;40.00
56330;BME280;42236;48.058;10.632;2023-03-18T13:26:41;94307.00;;;16.23;39.36
56330;BME280;42236;48.058;10.632;2023-03-18T13:29:37;94303.91;;;16.28;38.14
56330;BME280;42236;48.058;10.632;2023-03-18T13:35:50;94303.53;;;16.33;40.35
56330;BME280;42236;48.058;10.632;2023-03-18T13:44:43;94309.41;;;16.42;38.92
56330;BME280;42236;48.058;10.632;2023-03-18T13:47:35;94308.63;;;16.45;40.03
56330;BME280;42236;48.058;10.632;2023-03-18T13:50:33;94292.28;;;16.45;37.90
56330;BME280;42236;48.058;10.632;2023-03-18T13:53:30;94289.19;;;16.47;39.16
56330;BME280;42236;48.058;10.632;2023-03-18T13:56:46;94283.72;;;16.47;37.53
56330;BME280;42236;48.058;10.632;2023-03-18T14:02:33;94278.28;;;16.50;37.61
56330;BME280;42236;48.058;10.632;2023-03-18T14:05:46;94278.69;;;16.52;37.01
56330;BME280;42236;48.058;10.632;2023-03-18T14:12:02;94274.81;;;16.53;37.72
56330;BME280;42236;48.058;10.632;2023-03-18T14:17:53;94261.94;;;16.57;37.62
56330;BME280;42236;48.058;10.632;2023-03-18T14:20:41;94253.03;;;16.60;38.87
56330;BME280;42236;48.058;10.632;2023-03-18T14:23:40;94256.13;;;16.66;37.49
56330;BME280;42236;48.058;10.632;2023-03-18T14:26:27;94247.97;;;16.70;39.83
56330;BME280;42236;48.058;10.632;2023-03-18T14:29:14;94250.69;;;16.70;39.78
56330;BME280;42236;48.058;10.632;2023-03-18T14:32:03;94247.56;;;16.71;39.80
56330;BME280;42236;48.058;10.632;2023-03-18T14:34:57;94257.31;;;16.72;39.65
56330;BME280;42236;48.058;10.632;2023-03-18T14:41:03;94258.84;;;16.73;39.57
56330;BME280;42236;48.058;10.632;2023-03-18T14:44:06;94259.22;;;16.72;38.38
56330;BME280;42236;48.058;10.632;2023-03-18T14:46:58;94251.44;;;16.67;39.13
56330;BME280;42236;48.058;10.632;2023-03-18T14:56:41;94249.53;;;16.71;39.46
56330;BME280;42236;48.058;10.632;2023-03-18T14:59:26;94253.44;;;16.77;40.46
56330;BME280;42236;48.058;10.632;2023-03-18T15:02:33;94256.56;;;16.82;38.85
56330;BME280;42236;48.058;10.632;2023-03-18T15:05:21;94253.44;;;16.88;40.30
56330;BME280;42236;48.058;10.632;2023-03-18T15:08:19;94254.22;;;16.88;39.45
56330;BME280;42236;48.058;10.632;2023-03-18T15:11:06;94248.75;;;16.88;40.61
56330;BME280;42236;48.058;10.632;2023-03-18T15:13:54;94247.22;;;16.80;40.17
56330;BME280;42236;48.058;10.632;2023-03-18T15:16:40;94262.00;;;16.79;40.52
56330;BME280;42236;48.058;10.632;2023-03-18T15:19:32;94262.00;;;16.79;40.82
56330;BME280;42236;48.058;10.632;2023-03-18T15:22:21;94258.88;;;16.80;39.88
56330;BME280;42236;48.058;10.632;2023-03-18T15:25:50;94258.88;;;16.80;37.88
56330;BME280;42236;48.058;10.632;2023-03-18T15:28:47;94256.53;;;16.86;40.71
56330;BME280;42236;48.058;10.632;2023-03-18T15:31:43;94243.31;;;16.95;39.60
56330;BME280;42236;48.058;10.632;2023-03-18T15:34:32;94242.13;;;17.00;39.96
56330;BME280;42236;48.058;10.632;2023-03-18T15:46:29;94250.31;;;16.75;39.64
56330;BME280;42236;48.058;10.632;2023-03-18T15:49:51;94251.84;;;16.76;39.43
56330;BME280;42236;48.058;10.632;2023-03-18T15:52:40;94251.09;;;16.79;40.51
56330;BME280;42236;48.058;10.632;2023-03-18T15:55:46;94251.50;;;16.81;39.46
56330;BME280;42236;48.058;10.632;2023-03-18T15:58:36;94249.53;;;16.81;39.74
56330;BME280;42236;48.058;10.632;2023-03-18T16:01:35;94251.06;;;16.75;38.82
56330;BME280;42236;48.058;10.632;2023-03-18T16:04:21;94248.38;;;16.79;41.48
56330;BME280;42236;48.058;10.632;2023-03-18T16:07:20;94242.53;;;16.80;40.31
56330;BME280;42236;48.058;10.632;2023-03-18T16:10:07;94245.66;;;16.86;41.53
56330;BME280;42236;48.058;10.632;2023-03-18T16:13:04;94248.75;;;16.88;41.79
56330;BME280;42236;48.058;10.632;2023-03-18T16:15:51;94249.16;;;16.87;41.51
56330;BME280;42236;48.058;10.632;2023-03-18T16:18:37;94258.88;;;16.77;41.49
56330;BME280;42236;48.058;10.632;2023-03-18T16:21:23;94253.78;;;16.72;41.58
56330;BME280;42236;48.058;10.632;2023-03-18T16:24:09;94253.03;;;16.68;41.72
56330;BME280;42236;48.058;10.632;2023-03-18T16:26:55;94259.25;;;16.61;41.50
56330;BME280;42236;48.058;10.632;2023-03-18T16:29:43;94255.75;;;16.53;41.64
56330;BME280;42236;48.058;10.632;2023-03-18T16:32:29;94272.06;;;16.46;41.68
56330;BME280;42236;48.058;10.632;2023-03-18T16:35:23;94279.06;;;16.43;41.55
56330;BME280;42236;48.058;10.632;2023-03-18T16:38:12;94283.72;;;16.29;41.29
56330;BME280;42236;48.058;10.632;2023-03-18T16:40:59;94279.78;;;16.15;42.44